sensor_id;sensor_type;location;lat;lon;timestamp;pressure;altitude;pressure_sealevel;temperature;humidity
47726;BME280;33483;48.294;16.388;2022-08-21T00:01:50;99232.88;;;17.55;100.00
47726;BME280;33483;48.294;16.388;2022-08-21T00:04:17;99232.88;;;17.55;100.00
47726;BME280;33483;48.294;16.388;2022-08-21T00:06:50;99239.19;;;17.56;100.00
47726;BME280;33483;48.294;16.388;2022-08-21T00:09:18;99227.69;;;17.52;100.00
47726;BME280;33483;48.294;16.388;2022-08-21T00:11:48;99232.38;;;17.49;100.00
47726;BME280;33483;48.294;16.388;2022-08-21T00:14:16;99228.13;;;17.48;100.00
47726;BME280;33483;48.294;16.388;2022-08-21T00:16:46;99216.75;;;17.46;100.00
47726;BME280;33483;48.294;16.388;2022-08-21T00:19:13;99221.03;;;17.47;100.00
47726;BME280;33483;48.294;16.388;2022-08-21T00:21:40;99215.41;;;17.47;100.00
47726;BME280;33483;48.294;16.388;2022-08-21T00:24:10;99221.59;;;17.46;100.00
47726;BME280;33483;48.294;16.388;2022-08-21T00:26:40;99212.44;;;17.45;100.00
47726;BME280;33483;48.294;16.388;2022-08-21T00:29:07;99214.69;;;17.47;100.00
47726;BME280;33483;48.294;16.388;2022-08-21T00:31:37;99216.16;;;17.48;100.00
47726;BME280;33483;48.294;16.388;2022-08-21T00:34:05;99208.91;;;17.45;100.00
47726;BME280;33483;48.294;16.388;2022-08-21T00:36:34;99211.72;;;17.45;100.00
47726;BME280;33483;48.294;16.388;2022-08-21T00:39:05;99200.50;;;17.45;100.00
47726;BME280;33483;48.294;16.388;2022-08-21T00:41:34;99205.19;;;17.42;100.00
47726;BME280;33483;48.294;16.388;2022-08-21T00:44:10;99215.22;;;17.45;100.00
47726;BME280;33483;48.294;16.388;2022-08-21T00:46:38;99203.50;;;17.47;100.00
47726;BME280;33483;48.294;16.388;2022-08-21T00:49:09;99205.69;;;17.48;100.00
47726;BME280;33483;48.294;16.388;2022-08-21T00:51:51;99198.94;;;17.51;100.00
47726;BME280;33483;48.294;16.388;2022-08-21T00:54:22;99211.75;;;17.54;100.00
47726;BME280;33483;48.294;16.388;2022-08-21T00:56:57;99203.06;;;17.50;100.00
47726;BME280;33483;48.294;16.388;2022-08-21T00:59:28;99214.28;;;17.50;100.00
47726;BME280;33483;48.294;16.388;2022-08-21T01:01:57;99202.47;;;17.52;100.00
47726;BME280;33483;48.294;16.388;2022-08-21T01:04:24;99197.75;;;17.54;100.00
47726;BME280;33483;48.294;16.388;2022-08-21T01:06:54;99201.31;;;17.55;100.00
47726;BME280;33483;48.294;16.388;2022-08-21T01:09:21;99198.06;;;17.58;100.00
47726;BME280;33483;48.294;16.388;2022-08-21T01:11:49;99201.91;;;17.63;100.00
47726;BME280;33483;48.294;16.388;2022-08-21T01:14:19;99198.84;;;17.68;100.00
47726;BME280;33483;48.294;16.388;2022-08-21T01:16:52;99201.97;;;17.72;100.00
47726;BME280;33483;48.294;16.388;2022-08-21T01:19:21;99205.38;;;17.80;100.00
47726;BME280;33483;48.294;16.388;2022-08-21T01:21:48;99204.94;;;17.84;100.00
47726;BME280;33483;48.294;16.388;2022-08-21T01:24:15;99201.84;;;17.89;100.00
47726;BME280;33483;48.294;16.388;2022-08-21T01:26:45;99201.41;;;17.93;100.00
47726;BME280;33483;48.294;16.388;2022-08-21T01:32:02;99203.06;;;18.06;100.00
47726;BME280;33483;48.294;16.388;2022-08-21T01:34:30;99201.72;;;18.07;100.00
47726;BME280;33483;48.294;16.388;2022-08-21T01:36:58;99201.88;;;18.09;100.00
47726;BME280;33483;48.294;16.388;2022-08-21T01:39:25;99198.34;;;18.08;100.00
47726;BME280;33483;48.294;16.388;2022-08-21T01:41:52;99208.09;;;18.07;100.00
47726;BME280;33483;48.294;16.388;2022-08-21T01:44:23;99201.00;;;18.06;100.00
47726;BME280;33483;48.294;16.388;2022-08-21T01:46:51;99196.13;;;18.07;100.00
47726;BME280;33483;48.294;16.388;2022-08-21T01:49:19;99187.56;;;18.05;100.00
47726;BME280;33483;48.294;16.388;2022-08-21T01:51:49;99188.59;;;17.99;100.00
47726;BME280;33483;48.294;16.388;2022-08-21T01:54:16;99188.16;;;17.93;100.00
47726;BME280;33483;48.294;16.388;2022-08-21T01:56:47;99191.06;;;17.86;100.00
47726;BME280;33483;48.294;16.388;2022-08-21T01:59:15;99187.81;;;17.80;100.00
47726;BME280;33483;48.294;16.388;2022-08-21T02:01:43;99187.94;;;17.72;100.00
47726;BME280;33483;48.294;16.388;2022-08-21T02:04:12;99176.25;;;17.66;100.00
47726;BME280;33483;48.294;16.388;2022-08-21T02:06:42;99181.56;;;17.62;100.00
47726;BME280;33483;48.294;16.388;2022-08-21T02:09:10;99185.53;;;17.59;100.00
47726;BME280;33483;48.294;16.388;2022-08-21T02:11:38;99180.34;;;17.56;100.00
47726;BME280;33483;48.294;16.388;2022-08-21T02:14:13;99165.91;;;17.50;100.00
47726;BME280;33483;48.294;16.388;2022-08-21T02:16:59;99162.19;;;17.47;100.00
47726;BME280;33483;48.294;16.388;2022-08-21T02:19:36;99161.13;;;17.43;100.00
47726;BME280;33483;48.294;16.388;2022-08-21T02:22:09;99163.16;;;17.42;100.00
47726;BME280;33483;48.294;16.388;2022-08-21T02:24:38;99161.38;;;17.37;100.00
47726;BME280;33483;48.294;16.388;2022-08-21T02:27:24;99161.38;;;17.37;100.00
47726;BME280;33483;48.294;16.388;2022-08-21T02:29:58;99168.16;;;17.34;100.00
47726;BME280;33483;48.294;16.388;2022-08-21T02:32:25;99165.78;;;17.31;100.00
47726;BME280;33483;48.294;16.388;2022-08-21T02:34:55;99158.09;;;17.31;100.00
47726;BME280;33483;48.294;16.388;2022-08-21T02:37:23;99160.47;;;17.35;100.00
47726;BME280;33483;48.294;16.388;2022-08-21T02:39:50;99160.63;;;17.37;100.00
47726;BME280;33483;48.294;16.388;2022-08-21T02:42:17;99155.94;;;17.39;100.00
47726;BME280;33483;48.294;16.388;2022-08-21T02:44:45;99164.78;;;17.36;100.00
47726;BME280;33483;48.294;16.388;2022-08-21T02:47:13;99155.94;;;17.39;100.00
47726;BME280;33483;48.294;16.388;2022-08-21T02:49:40;99155.03;;;17.37;100.00
47726;BME280;33483;48.294;16.388;2022-08-21T02:52:08;99161.38;;;17.37;100.00
47726;BME280;33483;48.294;16.388;2022-08-21T02:54:35;99161.06;;;17.33;100.00
47726;BME280;33483;48.294;16.388;2022-08-21T02:57:02;99159.75;;;17.34;100.00
47726;BME280;33483;48.294;16.388;2022-08-21T02:59:31;99166.38;;;17.29;100.00
47726;BME280;33483;48.294;16.388;2022-08-21T03:01:58;99168.59;;;17.31;100.00
47726;BME280;33483;48.294;16.388;2022-08-21T03:04:26;99167.53;;;17.26;100.00
47726;BME280;33483;48.294;16.388;2022-08-21T03:06:55;99168.69;;;17.23;100.00
47726;BME280;33483;48.294;16.388;2022-08-21T03:09:22;99169.13;;;17.20;100.00
47726;BME280;33483;48.294;16.388;2022-08-21T03:11:50;99174.13;;;17.21;100.00
47726;BME280;33483;48.294;16.388;2022-08-21T03:14:18;99180.31;;;17.20;100.00
47726;BME280;33483;48.294;16.388;2022-08-21T03:16:45;99181.22;;;17.22;100.00
47726;BME280;33483;48.294;16.388;2022-08-21T03:19:12;99179.56;;;17.19;100.00
47726;BME280;33483;48.294;16.388;2022-08-21T03:21:40;99185.34;;;17.21;100.00
47726;BME280;33483;48.294;16.388;2022-08-21T03:24:09;99178.28;;;17.20;100.00
47726;BME280;33483;48.294;16.388;2022-08-21T03:26:37;99184.75;;;17.23;100.00
47726;BME280;33483;48.294;16.388;2022-08-21T03:29:07;99171.66;;;17.25;100.00
47726;BME280;33483;48.294;16.388;2022-08-21T03:31:34;99180.06;;;17.25;100.00
47726;BME280;33483;48.294;16.388;2022-08-21T03:34:01;99177.41;;;17.27;100.00
47726;BME280;33483;48.294;16.388;2022-08-21T03:36:28;99178.31;;;17.30;100.00
47726;BME280;33483;48.294;16.388;2022-08-21T03:38:58;99181.09;;;17.30;100.00
47726;BME280;33483;48.294;16.388;2022-08-21T03:41:25;99184.06;;;17.32;100.00
47726;BME280;33483;48.294;16.388;2022-08-21T03:43:52;99177.59;;;17.29;100.00
47726;BME280;33483;48.294;16.388;2022-08-21T03:46:20;99191.88;;;17.33;100.00
47726;BME280;33483;48.294;16.388;2022-08-21T03:48:47;99185.13;;;17.36;100.00
47726;BME280;33483;48.294;16.388;2022-08-21T03:51:15;99189.41;;;17.37;100.00
47726;BME280;33483;48.294;16.388;2022-08-21T03:53:44;99188.81;;;17.39;100.00
47726;BME280;33483;48.294;16.388;2022-08-21T03:56:11;99185.25;;;17.38;100.00
47726;BME280;33483;48.294;16.388;2022-08-21T03:58:39;99182.63;;;17.40;100.00
47726;BME280;33483;48.294;16.388;2022-08-21T04:01:06;99195.16;;;17.39;100.00
47726;BME280;33483;48.294;16.388;2022-08-21T04:03:35;99194.56;;;17.41;100.00
47726;BME280;33483;48.294;16.388;2022-08-21T04:06:03;99201.22;;;17.45;100.00
47726;BME280;33483;48.294;16.388;2022-08-21T04:08:30;99206.69;;;17.43;100.00
47726;BME280;33483;48.294;16.388;2022-08-21T04:10:58;99198.41;;;17.45;100.00
47726;BME280;33483;48.294;16.388;2022-08-21T04:13:25;99194.34;;;17.46;100.00
47726;BME280;33483;48.294;16.388;2022-08-21T04:15:57;99196.94;;;17.44;100.00
47726;BME280;33483;48.294;16.388;2022-08-21T04:18:28;99198.41;;;17.45;100.00
47726;BME280;33483;48.294;16.388;2022-08-21T04:20:57;99199.00;;;17.44;100.00
47726;BME280;33483;48.294;16.388;2022-08-21T04:23:25;99202.56;;;17.44;100.00
47726;BME280;33483;48.294;16.388;2022-08-21T04:25:54;99208.34;;;17.46;100.00
47726;BME280;33483;48.294;16.388;2022-08-21T04:28:24;99212.78;;;17.49;100.00
47726;BME280;33483;48.294;16.388;2022-08-21T04:30:56;99209.97;;;17.49;100.00
47726;BME280;33483;48.294;16.388;2022-08-21T04:33:23;99207.50;;;17.53;100.00
47726;BME280;33483;48.294;16.388;2022-08-21T04:35:51;99211.75;;;17.54;100.00
47726;BME280;33483;48.294;16.388;2022-08-21T04:38:18;99211.19;;;17.56;100.00
47726;BME280;33483;48.294;16.388;2022-08-21T04:40:46;99215.91;;;17.63;100.00
47726;BME280;33483;48.294;16.388;2022-08-21T04:43:15;99217.00;;;17.67;100.00
47726;BME280;33483;48.294;16.388;2022-08-21T04:45:45;99220.41;;;17.75;100.00
47726;BME280;33483;48.294;16.388;2022-08-21T04:48:21;99217.91;;;17.79;100.00
47726;BME280;33483;48.294;16.388;2022-08-21T04:53:30;99219.25;;;17.88;100.00
47726;BME280;33483;48.294;16.388;2022-08-21T04:56:08;99223.09;;;17.92;100.00
47726;BME280;33483;48.294;16.388;2022-08-21T04:58:40;99223.09;;;17.92;100.00
47726;BME280;33483;48.294;16.388;2022-08-21T05:01:13;99229.94;;;17.99;100.00
47726;BME280;33483;48.294;16.388;2022-08-21T05:03:43;99232.16;;;18.01;100.00
47726;BME280;33483;48.294;16.388;2022-08-21T05:06:12;99239.09;;;18.09;100.00
47726;BME280;33483;48.294;16.388;2022-08-21T05:08:44;99227.00;;;18.16;100.00
47726;BME280;33483;48.294;16.388;2022-08-21T05:11:12;99234.72;;;18.25;100.00
47726;BME280;33483;48.294;16.388;2022-08-21T05:13:40;99234.09;;;18.36;100.00
47726;BME280;33483;48.294;16.388;2022-08-21T05:16:09;99234.31;;;18.48;100.00
47726;BME280;33483;48.294;16.388;2022-08-21T05:18:39;99241.41;;;18.58;100.00
47726;BME280;33483;48.294;16.388;2022-08-21T05:21:09;99227.81;;;18.55;100.00
47726;BME280;33483;48.294;16.388;2022-08-21T05:23:37;99241.09;;;18.64;100.00
47726;BME280;33483;48.294;16.388;2022-08-21T05:26:04;99234.16;;;18.65;100.00
47726;BME280;33483;48.294;16.388;2022-08-21T05:28:32;99240.38;;;18.73;100.00
47726;BME280;33483;48.294;16.388;2022-08-21T05:30:59;99239.06;;;18.74;100.00
47726;BME280;33483;48.294;16.388;2022-08-21T05:33:26;99243.16;;;18.73;100.00
47726;BME280;33483;48.294;16.388;2022-08-21T05:35:56;99240.22;;;18.80;100.00
47726;BME280;33483;48.294;16.388;2022-08-21T05:38:25;99242.44;;;18.82;100.00
47726;BME280;33483;48.294;16.388;2022-08-21T05:40:55;99243.31;;;18.75;100.00
47726;BME280;33483;48.294;16.388;2022-08-21T05:43:22;99246.44;;;18.79;100.00
47726;BME280;33483;48.294;16.388;2022-08-21T05:45:50;99242.13;;;18.78;100.00
47726;BME280;33483;48.294;16.388;2022-08-21T05:48:20;99256.47;;;18.82;100.00
47726;BME280;33483;48.294;16.388;2022-08-21T05:50:50;99251.00;;;18.84;100.00
47726;BME280;33483;48.294;16.388;2022-08-21T05:53:20;99259.41;;;18.93;100.00
47726;BME280;33483;48.294;16.388;2022-08-21T05:55:49;99259.72;;;19.07;100.00
47726;BME280;33483;48.294;16.388;2022-08-21T05:58:20;99257.03;;;19.09;100.00
47726;BME280;33483;48.294;16.388;2022-08-21T06:00:49;99264.13;;;19.10;100.00
47726;BME280;33483;48.294;16.388;2022-08-21T06:03:24;99273.75;;;19.07;100.00
47726;BME280;33483;48.294;16.388;2022-08-21T06:05:52;99275.94;;;19.18;100.00
47726;BME280;33483;48.294;16.388;2022-08-21T06:08:22;99275.66;;;19.24;100.00
47726;BME280;33483;48.294;16.388;2022-08-21T06:10:51;99280.81;;;19.27;100.00
47726;BME280;33483;48.294;16.388;2022-08-21T06:13:20;99275.66;;;19.33;100.00
47726;BME280;33483;48.294;16.388;2022-08-21T06:15:59;99280.06;;;19.27;100.00
47726;BME280;33483;48.294;16.388;2022-08-21T06:18:27;99276.69;;;19.19;100.00
47726;BME280;33483;48.294;16.388;2022-08-21T06:20:54;99280.84;;;19.18;100.00
47726;BME280;33483;48.294;16.388;2022-08-21T06:23:23;99274.19;;;19.13;100.00
47726;BME280;33483;48.294;16.388;2022-08-21T06:26:01;99273.28;;;19.20;100.00
47726;BME280;33483;48.294;16.388;2022-08-21T06:28:28;99278.03;;;19.18;100.00
47726;BME280;33483;48.294;16.388;2022-08-21T06:30:55;99285.13;;;19.19;100.00
47726;BME280;33483;48.294;16.388;2022-08-21T06:33:24;99279.78;;;19.23;100.00
47726;BME280;33483;48.294;16.388;2022-08-21T06:35:58;99287.94;;;19.19;100.00
47726;BME280;33483;48.294;16.388;2022-08-21T06:38:29;99284.53;;;19.20;100.00
47726;BME280;33483;48.294;16.388;2022-08-21T06:40:57;99279.66;;;19.21;100.00
47726;BME280;33483;48.294;16.388;2022-08-21T06:43:27;99279.06;;;19.22;100.00
47726;BME280;33483;48.294;16.388;2022-08-21T06:46:07;99284.38;;;19.28;100.00
47726;BME280;33483;48.294;16.388;2022-08-21T06:48:37;99288.38;;;19.25;100.00
47726;BME280;33483;48.294;16.388;2022-08-21T06:51:07;99290.88;;;19.30;100.00
47726;BME280;33483;48.294;16.388;2022-08-21T06:53:34;99289.25;;;19.27;100.00
47726;BME280;33483;48.294;16.388;2022-08-21T06:56:04;99287.94;;;19.28;100.00
47726;BME280;33483;48.294;16.388;2022-08-21T06:58:32;99285.13;;;19.19;100.00
47726;BME280;33483;48.294;16.388;2022-08-21T07:00:59;99284.81;;;19.15;100.00
47726;BME280;33483;48.294;16.388;2022-08-21T07:03:30;99284.66;;;19.13;100.00
47726;BME280;33483;48.294;16.388;2022-08-21T07:06:01;99279.19;;;19.15;100.00
47726;BME280;33483;48.294;16.388;2022-08-21T07:08:29;99285.28;;;19.21;100.00
47726;BME280;33483;48.294;16.388;2022-08-21T07:11:00;99289.84;;;19.16;100.00
47726;BME280;33483;48.294;16.388;2022-08-21T07:13:28;99282.47;;;19.21;100.00
47726;BME280;33483;48.294;16.388;2022-08-21T07:15:56;99278.75;;;19.28;100.00
47726;BME280;33483;48.294;16.388;2022-08-21T07:18:30;99284.97;;;19.26;100.00
47726;BME280;33483;48.294;16.388;2022-08-21T07:20:57;99287.47;;;19.22;100.00
47726;BME280;33483;48.294;16.388;2022-08-21T07:23:29;99290.44;;;19.15;100.00
47726;BME280;33483;48.294;16.388;2022-08-21T07:25:57;99301.53;;;19.13;100.00
47726;BME280;33483;48.294;16.388;2022-08-21T07:28:28;99300.81;;;19.12;100.00
47726;BME280;33483;48.294;16.388;2022-08-21T07:30:57;99296.50;;;19.11;100.00
47726;BME280;33483;48.294;16.388;2022-08-21T07:33:26;99295.19;;;19.12;100.00
47726;BME280;33483;48.294;16.388;2022-08-21T07:35:54;99298.41;;;19.18;100.00
47726;BME280;33483;48.294;16.388;2022-08-21T07:38:22;99291.19;;;19.25;100.00
47726;BME280;33483;48.294;16.388;2022-08-21T07:40:52;99290.44;;;19.34;100.00
47726;BME280;33483;48.294;16.388;2022-08-21T07:43:20;99291.34;;;19.36;100.00
47726;BME280;33483;48.294;16.388;2022-08-21T07:45:48;99289.25;;;19.37;100.00
47726;BME280;33483;48.294;16.388;2022-08-21T07:48:24;99284.06;;;19.52;100.00
47726;BME280;33483;48.294;16.388;2022-08-21T07:50:51;99293.66;;;19.49;100.00
47726;BME280;33483;48.294;16.388;2022-08-21T07:53:21;99289.94;;;19.56;100.00
47726;BME280;33483;48.294;16.388;2022-08-21T07:56:05;99287.72;;;19.55;100.00
47726;BME280;33483;48.294;16.388;2022-08-21T07:58:33;99298.97;;;19.64;100.00
47726;BME280;33483;48.294;16.388;2022-08-21T08:01:00;99295.09;;;19.69;100.00
47726;BME280;33483;48.294;16.388;2022-08-21T08:03:28;99293.56;;;19.87;100.00
47726;BME280;33483;48.294;16.388;2022-08-21T08:05:56;99288.84;;;19.80;100.00
47726;BME280;33483;48.294;16.388;2022-08-21T08:08:24;99290.84;;;19.59;100.00
47726;BME280;33483;48.294;16.388;2022-08-21T08:10:56;99287.47;;;19.41;100.00
47726;BME280;33483;48.294;16.388;2022-08-21T08:13:24;99291.28;;;19.55;100.00
47726;BME280;33483;48.294;16.388;2022-08-21T08:15:52;99280.03;;;19.55;100.00
47726;BME280;33483;48.294;16.388;2022-08-21T08:18:21;99278.00;;;19.46;100.00
47726;BME280;33483;48.294;16.388;2022-08-21T08:20:49;99265.44;;;19.47;100.00
47726;BME280;33483;48.294;16.388;2022-08-21T08:23:16;99271.16;;;19.49;100.00
47726;BME280;33483;48.294;16.388;2022-08-21T08:25:45;99276.06;;;19.49;100.00
47726;BME280;33483;48.294;16.388;2022-08-21T08:28:13;99274.47;;;19.36;100.00
47726;BME280;33483;48.294;16.388;2022-08-21T08:30:46;99267.97;;;19.24;100.00
47726;BME280;33483;48.294;16.388;2022-08-21T08:33:14;99277.44;;;19.38;100.00
47726;BME280;33483;48.294;16.388;2022-08-21T08:35:46;99278.31;;;19.31;100.00
47726;BME280;33483;48.294;16.388;2022-08-21T08:38:19;99279.50;;;19.28;100.00
47726;BME280;33483;48.294;16.388;2022-08-21T08:43:18;99279.78;;;19.32;100.00
47726;BME280;33483;48.294;16.388;2022-08-21T08:45:49;99272.25;;;19.35;100.00
47726;BME280;33483;48.294;16.388;2022-08-21T08:51:07;99289.94;;;19.56;100.00
47726;BME280;33483;48.294;16.388;2022-08-21T08:53:57;99280.59;;;19.63;100.00
47726;BME280;33483;48.294;16.388;2022-08-21T08:56:32;99282.09;;;19.64;100.00
47726;BME280;33483;48.294;16.388;2022-08-21T08:59:18;99283.84;;;19.60;100.00
47726;BME280;33483;48.294;16.388;2022-08-21T09:01:47;99279.59;;;19.49;100.00
47726;BME280;33483;48.294;16.388;2022-08-21T09:04:18;99291.91;;;19.44;100.00
47726;BME280;33483;48.294;16.388;2022-08-21T09:06:58;99297.50;;;19.44;100.00
47726;BME280;33483;48.294;16.388;2022-08-21T09:12:49;99294.09;;;19.46;100.00
47726;BME280;33483;48.294;16.388;2022-08-21T09:24:07;99282.31;;;19.09;100.00
47726;BME280;33483;48.294;16.388;2022-08-21T09:29:17;99277.28;;;19.17;100.00
47726;BME280;33483;48.294;16.388;2022-08-21T09:31:47;99276.53;;;19.17;100.00
47726;BME280;33483;48.294;16.388;2022-08-21T09:34:28;99275.22;;;19.37;100.00
47726;BME280;33483;48.294;16.388;2022-08-21T09:36:56;99268.19;;;19.66;100.00
47726;BME280;33483;48.294;16.388;2022-08-21T09:39:31;99273.38;;;19.60;100.00
47726;BME280;33483;48.294;16.388;2022-08-21T09:42:09;99259.97;;;19.80;100.00
47726;BME280;33483;48.294;16.388;2022-08-21T09:44:40;99268.25;;;19.87;100.00
47726;BME280;33483;48.294;16.388;2022-08-21T09:47:11;99258.47;;;19.79;100.00
47726;BME280;33483;48.294;16.388;2022-08-21T09:49:43;99262.63;;;19.87;100.00
47726;BME280;33483;48.294;16.388;2022-08-21T09:52:20;99256.06;;;19.94;100.00
47726;BME280;33483;48.294;16.388;2022-08-21T09:54:54;99258.22;;;20.05;100.00
47726;BME280;33483;48.294;16.388;2022-08-21T09:57:27;99242.34;;;20.41;100.00
47726;BME280;33483;48.294;16.388;2022-08-21T10:02:48;99258.34;;;20.59;100.00
47726;BME280;33483;48.294;16.388;2022-08-21T10:05:19;99260.53;;;20.61;100.00
47726;BME280;33483;48.294;16.388;2022-08-21T10:07:52;99252.31;;;20.74;100.00
47726;BME280;33483;48.294;16.388;2022-08-21T10:10:23;99249.97;;;20.50;100.00
47726;BME280;33483;48.294;16.388;2022-08-21T10:15:44;99244.94;;;20.27;100.00
47726;BME280;33483;48.294;16.388;2022-08-21T10:18:35;99251.31;;;19.97;100.00
47726;BME280;33483;48.294;16.388;2022-08-21T10:21:12;99249.78;;;20.05;100.00
47726;BME280;33483;48.294;16.388;2022-08-21T10:32:08;99251.03;;;20.24;100.00
47726;BME280;33483;48.294;16.388;2022-08-21T10:37:57;99252.53;;;19.84;100.00
47726;BME280;33483;48.294;16.388;2022-08-21T10:40:45;99254.34;;;19.80;100.00
47726;BME280;33483;48.294;16.388;2022-08-21T10:43:38;99257.75;;;19.78;100.00
47726;BME280;33483;48.294;16.388;2022-08-21T10:48:59;99257.47;;;19.74;100.00
47726;BME280;33483;48.294;16.388;2022-08-21T10:51:42;99252.47;;;19.63;100.00
47726;BME280;33483;48.294;16.388;2022-08-21T10:56:56;99263.22;;;19.27;100.00
47726;BME280;33483;48.294;16.388;2022-08-21T10:59:31;99255.94;;;19.52;100.00
47726;BME280;33483;48.294;16.388;2022-08-21T11:02:17;99259.09;;;19.77;100.00
47726;BME280;33483;48.294;16.388;2022-08-21T11:07:29;99249.69;;;20.67;100.00
47726;BME280;33483;48.294;16.388;2022-08-21T11:10:11;99245.16;;;20.94;100.00
47726;BME280;33483;48.294;16.388;2022-08-21T11:12:43;99248.84;;;21.30;100.00
47726;BME280;33483;48.294;16.388;2022-08-21T11:15:49;99241.31;;;21.78;100.00
47726;BME280;33483;48.294;16.388;2022-08-21T11:18:26;99250.78;;;22.17;100.00
47726;BME280;33483;48.294;16.388;2022-08-21T11:23:42;99246.56;;;22.30;100.00
47726;BME280;33483;48.294;16.388;2022-08-21T11:26:18;99253.34;;;22.13;100.00
47726;BME280;33483;48.294;16.388;2022-08-21T11:28:52;99244.03;;;21.88;100.00
47726;BME280;33483;48.294;16.388;2022-08-21T11:37:01;99251.13;;;20.89;100.00
47726;BME280;33483;48.294;16.388;2022-08-21T11:53:19;99253.72;;;20.64;100.00
47726;BME280;33483;48.294;16.388;2022-08-21T11:55:55;99258.94;;;20.79;100.00
47726;BME280;33483;48.294;16.388;2022-08-21T11:58:31;99245.13;;;21.15;100.00
47726;BME280;33483;48.294;16.388;2022-08-21T12:01:04;99249.25;;;21.59;100.00
47726;BME280;33483;48.294;16.388;2022-08-21T12:03:35;99249.78;;;22.01;100.00
47726;BME280;33483;48.294;16.388;2022-08-21T12:06:12;99250.00;;;22.28;100.00
47726;BME280;33483;48.294;16.388;2022-08-21T12:08:58;99256.75;;;22.23;100.00
47726;BME280;33483;48.294;16.388;2022-08-21T12:11:28;99246.97;;;22.24;100.00
47726;BME280;33483;48.294;16.388;2022-08-21T12:14:15;99259.47;;;22.10;100.00
47726;BME280;33483;48.294;16.388;2022-08-21T12:16:48;99259.22;;;21.83;100.00
47726;BME280;33483;48.294;16.388;2022-08-21T12:26:58;99264.19;;;20.52;100.00
47726;BME280;33483;48.294;16.388;2022-08-21T12:40:43;99264.91;;;19.70;100.00
47726;BME280;33483;48.294;16.388;2022-08-21T12:43:16;99266.09;;;19.67;100.00
47726;BME280;33483;48.294;16.388;2022-08-21T12:45:49;99269.69;;;19.58;100.00
47726;BME280;33483;48.294;16.388;2022-08-21T12:51:09;99271.00;;;19.57;100.00
47726;BME280;33483;48.294;16.388;2022-08-21T12:53:49;99263.59;;;19.61;100.00
47726;BME280;33483;48.294;16.388;2022-08-21T12:56:19;99265.22;;;19.64;100.00
47726;BME280;33483;48.294;16.388;2022-08-21T12:58:55;99264.00;;;19.77;100.00
47726;BME280;33483;48.294;16.388;2022-08-21T13:01:27;99264.41;;;19.83;100.00
47726;BME280;33483;48.294;16.388;2022-08-21T13:04:01;99262.66;;;19.78;100.00
47726;BME280;33483;48.294;16.388;2022-08-21T13:06:39;99251.22;;;19.85;100.00
47726;BME280;33483;48.294;16.388;2022-08-21T13:09:13;99256.09;;;19.85;100.00
47726;BME280;33483;48.294;16.388;2022-08-21T13:11:48;99252.81;;;19.88;100.00
47726;BME280;33483;48.294;16.388;2022-08-21T13:14:35;99260.97;;;19.84;100.00
47726;BME280;33483;48.294;16.388;2022-08-21T13:17:18;99265.78;;;20.03;100.00
47726;BME280;33483;48.294;16.388;2022-08-21T13:19:56;99273.56;;;20.24;100.00
47726;BME280;33483;48.294;16.388;2022-08-21T13:22:25;99268.09;;;20.47;100.00
47726;BME280;33483;48.294;16.388;2022-08-21T13:25:01;99264.44;;;20.56;100.00
47726;BME280;33483;48.294;16.388;2022-08-21T13:27:33;99261.44;;;20.63;100.00
47726;BME280;33483;48.294;16.388;2022-08-21T13:30:19;99270.28;;;20.69;100.00
47726;BME280;33483;48.294;16.388;2022-08-21T13:32:52;99266.78;;;20.80;100.00
47726;BME280;33483;48.294;16.388;2022-08-21T13:35:23;99267.38;;;20.79;100.00
47726;BME280;33483;48.294;16.388;2022-08-21T13:37:51;99264.09;;;20.82;100.00
47726;BME280;33483;48.294;16.388;2022-08-21T13:40:24;99259.97;;;20.95;100.00
47726;BME280;33483;48.294;16.388;2022-08-21T13:42:53;99266.81;;;21.13;100.00
47726;BME280;33483;48.294;16.388;2022-08-21T13:45:29;99258.41;;;21.24;100.00
47726;BME280;33483;48.294;16.388;2022-08-21T13:48:01;99268.50;;;21.51;100.00
47726;BME280;33483;48.294;16.388;2022-08-21T13:50:33;99254.03;;;21.56;100.00
47726;BME280;33483;48.294;16.388;2022-08-21T13:53:05;99258.38;;;21.80;100.00
47726;BME280;33483;48.294;16.388;2022-08-21T13:55:41;99262.19;;;21.96;100.00
47726;BME280;33483;48.294;16.388;2022-08-21T13:58:10;99257.53;;;22.01;100.00
47726;BME280;33483;48.294;16.388;2022-08-21T14:00:47;99263.66;;;21.86;100.00
47726;BME280;33483;48.294;16.388;2022-08-21T14:03:33;99262.19;;;21.96;100.00
47726;BME280;33483;48.294;16.388;2022-08-21T14:06:01;99258.00;;;21.97;100.00
47726;BME280;33483;48.294;16.388;2022-08-21T14:08:39;99268.56;;;21.85;100.00
47726;BME280;33483;48.294;16.388;2022-08-21T14:11:12;99266.47;;;21.97;100.00
47726;BME280;33483;48.294;16.388;2022-08-21T14:13:40;99263.91;;;22.01;100.00
47726;BME280;33483;48.294;16.388;2022-08-21T14:16:45;99263.16;;;22.01;100.00
47726;BME280;33483;48.294;16.388;2022-08-21T14:21:45;99263.28;;;22.14;100.00
47726;BME280;33483;48.294;16.388;2022-08-21T14:24:25;99259.97;;;22.29;100.00
47726;BME280;33483;48.294;16.388;2022-08-21T14:26:53;99265.25;;;22.12;100.00
47726;BME280;33483;48.294;16.388;2022-08-21T14:29:24;99265.63;;;22.06;100.00
47726;BME280;33483;48.294;16.388;2022-08-21T14:31:58;99266.09;;;22.03;100.00
47726;BME280;33483;48.294;16.388;2022-08-21T14:34:30;99269.66;;;21.92;100.00
47726;BME280;33483;48.294;16.388;2022-08-21T14:37:02;99268.75;;;21.66;100.00
47726;BME280;33483;48.294;16.388;2022-08-21T14:39:29;99267.00;;;21.50;100.00